Time;durP1;ratioP1;P1;durP2;ratioP2;P2;SDS_P1;SDS_P2;PMS_P1;PMS_P2;Temp;Humidity;BMP_temperature;BMP_pressure;BME280_temperature;BME280_humidity;BME280_pressure;Samples;Min_cycle;Max_cycle;Signal;HPM_P1;HPM_P2
2023/09/27 00:00:40;;;;;;;10.90;5.60;;;;;;;13.38;100.00;100420.02;106793;1270;22512;-70
2023/09/27 00:03:29;;;;;;;6.50;4.50;;;;;;;13.36;100.00;100421.67;106888;1264;100427;-70
2023/09/27 00:05:58;;;;;;;10.00;5.90;;;;;;;13.36;100.00;100422.58;106878;1270;22565;-69
2023/09/27 00:08:27;;;;;;;10.80;7.20;;;;;;;13.36;100.00;100419.91;106754;1269;23937;-69
2023/09/27 00:10:57;;;;;;;9.80;6.40;;;;;;;13.38;100.00;100418.27;106754;1270;100266;-70
2023/09/27 00:13:26;;;;;;;9.60;5.50;;;;;;;13.40;100.00;100416.42;106549;1270;25259;-69
2023/09/27 00:15:55;;;;;;;9.30;5.50;;;;;;;13.40;100.00;100417.98;106688;1269;99647;-68
2023/09/27 00:18:23;;;;;;;9.70;6.30;;;;;;;13.38;100.00;100416.84;106692;1269;22526;-68
2023/09/27 00:20:52;;;;;;;11.40;6.30;;;;;;;13.36;100.00;100419.05;106564;1272;23873;-68
2023/09/27 00:23:21;;;;;;;9.80;6.50;;;;;;;13.36;100.00;100417.50;106709;1269;101579;-68
2023/09/27 00:25:49;;;;;;;10.50;6.90;;;;;;;13.32;100.00;100413.46;106740;1267;25297;-68
2023/09/27 00:28:21;;;;;;;10.90;6.20;;;;;;;13.30;100.00;100412.38;106591;1269;100101;-68
2023/09/27 00:30:51;;;;;;;11.20;5.80;;;;;;;13.26;100.00;100415.52;106797;1269;23043;-67
2023/09/27 00:33:19;;;;;;;9.00;5.80;;;;;;;13.21;100.00;100413.61;106553;1269;24804;-68
2023/09/27 00:35:49;;;;;;;7.80;5.70;;;;;;;13.16;100.00;100409.27;106675;1269;99994;-68
2023/09/27 00:38:18;;;;;;;9.90;6.20;;;;;;;13.13;100.00;100405.42;106801;1269;25335;-67
2023/09/27 00:40:48;;;;;;;9.00;5.30;;;;;;;13.13;100.00;100407.34;106908;1269;99445;-67
2023/09/27 00:43:30;;;;;;;13.60;7.30;;;;;;;13.12;100.00;100401.79;106627;1269;22600;-68
2023/09/27 00:46:05;;;;;;;10.80;6.50;;;;;;;13.11;100.00;100401.99;106700;1269;101754;-68
2023/09/27 00:48:36;;;;;;;10.60;6.50;;;;;;;13.10;100.00;100401.54;106812;1270;23872;-69
2023/09/27 00:51:05;;;;;;;9.50;5.90;;;;;;;13.08;100.00;100399.19;106792;1265;25358;-68
2023/09/27 00:53:37;;;;;;;11.20;7.20;;;;;;;13.06;100.00;100399.10;106601;1269;99960;-67
2023/09/27 00:56:08;;;;;;;12.60;6.00;;;;;;;13.06;100.00;100398.73;106720;1267;24230;-68
2023/09/27 00:58:37;;;;;;;8.80;5.80;;;;;;;13.08;100.00;100400.23;106764;1270;99776;-69
2023/09/27 01:01:06;;;;;;;10.00;6.50;;;;;;;13.11;100.00;100398.16;106795;1269;22878;-69
2023/09/27 01:03:36;;;;;;;7.30;5.20;;;;;;;13.13;100.00;100398.56;106966;1269;100156;-67
2023/09/27 01:06:07;;;;;;;8.20;5.80;;;;;;;13.16;100.00;100399.69;106796;1269;22528;-69
2023/09/27 01:08:35;;;;;;;8.20;5.30;;;;;;;13.15;100.00;100394.67;106594;1269;22542;-69
2023/09/27 01:11:07;;;;;;;9.90;5.80;;;;;;;13.13;100.00;100393.34;106710;1269;100059;-69
2023/09/27 01:13:37;;;;;;;10.30;6.00;;;;;;;13.11;100.00;100388.19;106760;1269;25337;-68
2023/09/27 01:16:07;;;;;;;9.00;5.80;;;;;;;13.09;100.00;100388.28;106518;1255;101396;-69
2023/09/27 01:18:35;;;;;;;9.50;6.40;;;;;;;13.06;100.00;100385.48;106782;1270;24213;-70
2023/09/27 01:21:04;;;;;;;21.50;9.00;;;;;;;13.04;100.00;100385.75;106686;1269;24254;-70
2023/09/27 01:23:36;;;;;;;8.40;5.60;;;;;;;13.05;100.00;100383.09;106340;1269;100283;-69
2023/09/27 01:26:07;;;;;;;8.60;5.70;;;;;;;13.08;100.00;100377.33;106622;1270;25468;-68
2023/09/27 01:28:37;;;;;;;12.10;7.50;;;;;;;13.11;100.00;100376.31;106714;1266;100001;-68
2023/09/27 01:31:07;;;;;;;11.30;7.10;;;;;;;13.13;100.00;100376.05;106599;1269;25233;-68
2023/09/27 01:33:36;;;;;;;12.60;7.70;;;;;;;13.15;100.00;100381.89;106932;1269;100410;-66
2023/09/27 01:36:05;;;;;;;8.00;6.00;;;;;;;13.18;100.00;100387.15;106891;1269;23513;-67
2023/09/27 01:38:34;;;;;;;8.10;6.10;;;;;;;13.22;100.00;100386.30;106715;1269;22551;-67
2023/09/27 01:41:03;;;;;;;11.10;6.10;;;;;;;13.25;100.00;100387.23;106424;1270;102038;-68
2023/09/27 01:43:32;;;;;;;10.90;7.00;;;;;;;13.25;100.00;100384.94;106745;1269;24223;-67
2023/09/27 01:46:01;;;;;;;9.70;6.90;;;;;;;13.23;100.00;100388.17;106651;1269;100243;-67
2023/09/27 01:48:29;;;;;;;11.20;7.30;;;;;;;13.25;100.00;100389.31;106711;1269;25356;-68
2023/09/27 01:50:58;;;;;;;11.20;7.00;;;;;;;13.25;100.00;100384.25;106798;1269;22529;-67
2023/09/27 01:53:27;;;;;;;10.60;6.90;;;;;;;13.26;100.00;100382.83;106529;1272;99628;-68
2023/09/27 01:55:56;;;;;;;11.30;7.40;;;;;;;13.27;100.00;100381.89;106790;1269;25287;-67
2023/09/27 01:58:24;;;;;;;12.50;7.20;;;;;;;13.31;100.00;100383.98;106736;1269;100101;-68
2023/09/27 02:00:53;;;;;;;14.70;7.80;;;;;;;13.31;100.00;100382.05;106654;1269;23028;-67
2023/09/27 02:03:22;;;;;;;10.70;7.20;;;;;;;13.29;100.00;100381.80;107171;1269;22537;-67
2023/09/27 02:05:52;;;;;;;10.60;6.90;;;;;;;13.28;100.00;100379.78;106681;1259;99367;-68
2023/09/27 02:08:21;;;;;;;12.70;7.40;;;;;;;13.28;100.00;100381.88;106842;1269;22531;-68
2023/09/27 02:10:51;;;;;;;11.90;7.50;;;;;;;13.27;100.00;100382.45;106547;1269;101027;-67
2023/09/27 02:13:20;;;;;;;9.60;6.80;;;;;;;13.26;100.00;100383.02;106432;1270;24307;-69
2023/09/27 02:15:48;;;;;;;10.70;7.40;;;;;;;13.22;100.00;100378.06;106645;1269;101695;-67
2023/09/27 02:18:17;;;;;;;15.60;6.70;;;;;;;13.21;100.00;100372.52;106628;1269;22639;-67
2023/09/27 02:20:46;;;;;;;10.40;7.00;;;;;;;13.20;100.00;100375.02;106824;1269;22529;-68
2023/09/27 02:23:14;;;;;;;12.00;7.50;;;;;;;13.23;100.00;100375.92;106679;1269;101012;-67
2023/09/27 02:25:43;;;;;;;10.50;6.90;;;;;;;13.21;100.00;100373.56;106773;1269;22508;-67
2023/09/27 02:28:12;;;;;;;10.80;6.80;;;;;;;13.19;100.00;100374.35;106788;1269;100529;-67
2023/09/27 02:30:42;;;;;;;9.50;6.20;;;;;;;13.21;100.00;100373.56;106580;1270;25339;-66
2023/09/27 02:33:11;;;;;;;16.10;8.60;;;;;;;13.23;100.00;100372.48;106918;1266;22522;-66
2023/09/27 02:35:40;;;;;;;12.20;7.80;;;;;;;13.23;100.00;100372.09;107365;1269;101718;-67
2023/09/27 02:38:09;;;;;;;16.20;8.40;;;;;;;13.25;100.00;100374.44;106732;1269;22551;-66
2023/09/27 02:40:38;;;;;;;12.20;7.80;;;;;;;13.25;100.00;100369.02;106606;1269;100229;-66
2023/09/27 02:43:06;;;;;;;11.10;7.10;;;;;;;13.24;100.00;100368.20;106652;1269;22500;-67
2023/09/27 02:45:35;;;;;;;12.20;7.00;;;;;;;13.20;100.00;100365.59;106984;1269;100442;-67
2023/09/27 02:48:04;;;;;;;8.80;6.20;;;;;;;13.18;100.00;100365.32;106832;1269;25857;-67
2023/09/27 02:50:33;;;;;;;11.60;7.30;;;;;;;13.16;100.00;100363.86;106709;1269;22550;-67
2023/09/27 02:53:02;;;;;;;15.50;8.10;;;;;;;13.14;100.00;100364.65;106666;1269;101806;-67
2023/09/27 02:55:32;;;;;;;10.70;7.20;;;;;;;13.13;100.00;100363.96;106950;1269;25242;-67
2023/09/27 02:58:01;;;;;;;10.80;7.10;;;;;;;13.11;100.00;100364.43;106656;1269;99819;-67
2023/09/27 03:00:29;;;;;;;15.90;8.50;;;;;;;13.07;100.00;100364.65;106467;1269;22520;-67
2023/09/27 03:03:00;;;;;;;12.00;7.70;;;;;;;13.05;100.00;100365.44;106954;1269;22533;-67
2023/09/27 03:05:35;;;;;;;15.30;7.70;;;;;;;12.99;100.00;100362.41;106586;1270;101620;-68
2023/09/27 03:08:05;;;;;;;10.30;6.50;;;;;;;12.90;100.00;100362.12;106898;1269;22534;-68
2023/09/27 03:10:41;;;;;;;9.80;6.60;;;;;;;12.83;100.00;100365.27;106835;1269;99668;-67
2023/09/27 03:13:11;;;;;;;8.70;5.20;;;;;;;12.70;100.00;100360.39;106741;1269;22862;-67
2023/09/27 03:15:40;;;;;;;8.70;5.20;;;;;;;12.57;100.00;100360.46;106432;1269;100246;-67
2023/09/27 03:18:09;;;;;;;7.90;5.30;;;;;;;12.50;100.00;100361.15;106732;1269;24052;-67
2023/09/27 03:20:38;;;;;;;13.20;7.00;;;;;;;12.49;100.00;100359.61;106728;1269;22561;-67
2023/09/27 03:23:07;;;;;;;11.90;7.60;;;;;;;12.51;100.00;100357.09;106672;1269;99619;-66
2023/09/27 03:25:36;;;;;;;9.50;5.80;;;;;;;12.52;100.00;100356.00;106927;1269;25276;-66
2023/09/27 03:28:05;;;;;;;12.80;8.00;;;;;;;12.56;100.00;100358.41;106736;1265;100188;-66
2023/09/27 03:30:34;;;;;;;12.80;7.30;;;;;;;12.62;100.00;100357.27;106665;1263;22520;-66
2023/09/27 03:33:03;;;;;;;13.70;7.30;;;;;;;12.66;100.00;100357.11;106814;1269;22550;-66
2023/09/27 03:35:32;;;;;;;10.90;7.80;;;;;;;12.67;100.00;100357.38;106656;1267;99732;-67
2023/09/27 03:38:01;;;;;;;13.60;7.50;;;;;;;12.69;100.00;100356.61;106600;1270;24363;-67
2023/09/27 03:40:30;;;;;;;12.70;7.00;;;;;;;12.67;100.00;100356.70;106757;1269;100171;-60
2023/09/27 03:42:59;;;;;;;12.30;7.20;;;;;;;12.66;100.00;100357.09;108579;1269;22523;-67
2023/09/27 03:45:30;;;;;;;13.10;7.00;;;;;;;12.66;100.00;100360.59;107272;1269;101750;-66
2023/09/27 03:47:59;;;;;;;11.30;7.50;;;;;;;12.68;100.00;100358.41;106634;1270;22674;-67
2023/09/27 03:50:29;;;;;;;11.50;7.60;;;;;;;12.69;100.00;100358.02;106619;1262;25243;-67
2023/09/27 03:52:59;;;;;;;10.40;6.20;;;;;;;12.69;100.00;100356.77;107722;1268;99594;-67
2023/09/27 03:55:27;;;;;;;12.40;7.30;;;;;;;12.70;100.00;100360.42;106668;1272;24633;-67
2023/09/27 03:57:56;;;;;;;10.50;6.10;;;;;;;12.69;100.00;100359.41;107929;1270;99770;-67
2023/09/27 04:00:25;;;;;;;9.40;6.40;;;;;;;12.68;100.00;100360.48;107057;1269;25258;-67
2023/09/27 04:02:54;;;;;;;8.80;6.30;;;;;;;12.63;100.00;100359.48;106774;1265;24214;-67
2023/09/27 04:05:26;;;;;;;10.50;7.70;;;;;;;12.59;100.00;100358.30;106620;1269;99610;-67
2023/09/27 04:07:55;;;;;;;10.50;6.90;;;;;;;12.59;100.00;100356.89;106700;1262;22663;-67
2023/09/27 04:10:28;;;;;;;13.90;8.80;;;;;;;12.57;100.00;100356.45;106538;1269;99750;-67
2023/09/27 04:12:57;;;;;;;13.60;8.60;;;;;;;12.57;100.00;100353.14;106544;1270;23879;-67
2023/09/27 04:15:26;;;;;;;9.10;6.30;;;;;;;12.60;100.00;100359.46;106730;1269;22649;-67
2023/09/27 04:17:54;;;;;;;10.10;6.70;;;;;;;12.63;100.00;100357.42;106854;1254;24254;-66
2023/09/27 04:20:25;;;;;;;12.60;7.70;;;;;;;12.65;100.00;100355.19;106708;1263;25416;-66
2023/09/27 04:22:53;;;;;;;16.60;8.90;;;;;;;12.69;100.00;100357.98;106904;1270;100228;-66
2023/09/27 04:25:23;;;;;;;13.70;7.20;;;;;;;12.72;100.00;100358.38;106606;1271;22623;-66
2023/09/27 04:27:51;;;;;;;13.80;7.80;;;;;;;12.73;100.00;100357.79;106739;1262;100919;-66
2023/09/27 04:30:22;;;;;;;11.90;8.00;;;;;;;12.74;100.00;100357.27;106690;1262;22530;-67
2023/09/27 04:32:52;;;;;;;13.20;7.90;;;;;;;12.73;100.00;100348.41;106775;1272;23887;-66
2023/09/27 04:35:21;;;;;;;13.50;7.80;;;;;;;12.71;100.00;100347.23;106517;1271;100544;-66
2023/09/27 04:37:50;;;;;;;13.00;8.30;;;;;;;12.74;100.00;100349.90;106814;1270;22864;-67
2023/09/27 04:40:19;;;;;;;16.60;8.90;;;;;;;12.78;100.00;100349.04;106768;1271;100245;-66
2023/09/27 04:42:48;;;;;;;13.50;9.10;;;;;;;12.82;100.00;100352.86;106887;1271;25425;-66
2023/09/27 04:45:16;;;;;;;16.00;8.80;;;;;;;12.88;100.00;100348.73;106559;1271;23011;-66
2023/09/27 04:47:45;;;;;;;17.60;9.80;;;;;;;12.97;100.00;100348.16;106493;1272;100051;-60
2023/09/27 04:50:15;;;;;;;14.30;9.20;;;;;;;13.04;100.00;100345.23;106643;1271;25189;-60
2023/09/27 04:52:44;;;;;;;16.60;10.30;;;;;;;13.11;100.00;100341.91;106624;1270;100164;-59
2023/09/27 04:55:14;;;;;;;12.80;8.90;;;;;;;13.15;100.00;100341.17;106709;1269;22533;-59
2023/09/27 04:57:43;;;;;;;13.40;8.60;;;;;;;13.20;100.00;100339.52;106702;1270;100434;-59
2023/09/27 05:00:18;;;;;;;12.80;9.00;;;;;;;13.25;100.00;100336.36;106904;1269;24269;-59
2023/09/27 05:02:50;;;;;;;12.50;8.20;;;;;;;13.28;100.00;100337.98;106609;1272;24346;-59
2023/09/27 05:05:21;;;;;;;13.30;8.00;;;;;;;13.31;100.00;100344.80;106667;1270;100201;-59
2023/09/27 05:07:52;;;;;;;10.70;7.10;;;;;;;13.33;100.00;100345.95;106527;1269;25230;-61
2023/09/27 05:10:21;;;;;;;14.10;9.10;;;;;;;13.33;100.00;100348.71;106665;1269;99746;-59
2023/09/27 05:12:49;;;;;;;15.20;8.50;;;;;;;13.34;100.00;100349.58;106766;1270;25326;-58
2023/09/27 05:15:18;;;;;;;13.70;8.70;;;;;;;13.34;100.00;100347.48;106705;1270;25243;-59
2023/09/27 05:17:47;;;;;;;15.40;9.70;;;;;;;13.34;100.00;100342.94;106432;1269;99764;-58
2023/09/27 05:20:15;;;;;;;15.80;8.70;;;;;;;13.33;100.00;100340.85;106936;1269;25416;-57
2023/09/27 05:22:44;;;;;;;13.00;7.40;;;;;;;13.34;100.00;100333.98;106743;1269;99682;-55
2023/09/27 05:25:14;;;;;;;16.00;8.90;;;;;;;13.35;100.00;100333.97;106876;1269;352493;-59
2023/09/27 05:27:44;;;;;;;13.80;9.10;;;;;;;13.34;100.00;100331.21;106872;1270;100094;-59
2023/09/27 05:30:15;;;;;;;16.80;9.70;;;;;;;13.32;100.00;100332.36;106733;1269;25406;-58
2023/09/27 05:32:44;;;;;;;12.90;8.40;;;;;;;13.30;100.00;100329.98;106847;1269;22527;-58
2023/09/27 05:35:13;;;;;;;14.20;9.10;;;;;;;13.32;100.00;100329.05;106535;1270;99877;-58
2023/09/27 05:37:42;;;;;;;14.30;8.70;;;;;;;13.34;100.00;100331.91;106611;1269;25604;-58
2023/09/27 05:40:12;;;;;;;12.40;8.30;;;;;;;13.37;100.00;100333.13;107239;1272;99808;-58
2023/09/27 05:42:41;;;;;;;13.20;8.50;;;;;;;13.43;100.00;100335.64;106641;1270;22524;-58
2023/09/27 05:45:11;;;;;;;14.70;9.40;;;;;;;13.54;100.00;100335.29;106822;1270;25297;-57
2023/09/27 05:47:41;;;;;;;17.60;10.80;;;;;;;13.66;100.00;100343.27;106649;1270;101071;-55
2023/09/27 05:50:12;;;;;;;14.50;7.80;;;;;;;13.79;100.00;100351.02;106744;1269;22641;-48
2023/09/27 05:52:46;;;;;;;17.40;10.30;;;;;;;13.91;100.00;100352.52;106613;1269;99743;-56
2023/09/27 05:55:15;;;;;;;12.20;8.00;;;;;;;13.96;100.00;100351.72;106763;1270;25253;-54
2023/09/27 05:57:44;;;;;;;14.90;8.50;;;;;;;13.97;100.00;100353.21;106475;1269;99876;-56
2023/09/27 06:00:26;;;;;;;13.90;8.80;;;;;;;13.99;100.00;100353.47;106648;1269;24212;-54
2023/09/27 06:02:56;;;;;;;13.00;7.90;;;;;;;14.05;100.00;100348.28;106559;1270;25281;-56
2023/09/27 06:05:26;;;;;;;15.70;9.10;;;;;;;14.09;100.00;100349.96;106620;1269;100180;-55
2023/09/27 06:07:55;;;;;;;14.70;9.60;;;;;;;14.22;100.00;100351.78;106736;1273;22787;-55
2023/09/27 06:10:24;;;;;;;14.80;9.00;;;;;;;14.45;100.00;100345.14;106767;1270;98802;-55
2023/09/27 06:12:53;;;;;;;15.30;10.50;;;;;;;14.73;100.00;100342.40;106863;1269;24425;-54
2023/09/27 06:15:22;;;;;;;18.10;10.50;;;;;;;15.01;100.00;100331.76;106765;1270;23786;-55
2023/09/27 06:17:51;;;;;;;15.10;9.80;;;;;;;15.29;100.00;100328.25;106608;1269;99703;-54
2023/09/27 06:20:21;;;;;;;20.50;10.00;;;;;;;15.60;100.00;100321.35;106980;1270;22639;-54
2023/09/27 06:22:52;;;;;;;16.10;9.70;;;;;;;15.91;100.00;100324.32;106575;1263;99859;-55
2023/09/27 06:25:24;;;;;;;15.80;10.40;;;;;;;16.12;100.00;100327.77;106693;1270;25009;-54
2023/09/27 06:27:52;;;;;;;17.60;9.60;;;;;;;16.28;100.00;100330.64;106672;1269;99966;-55
2023/09/27 06:30:22;;;;;;;20.30;10.10;;;;;;;16.43;100.00;100330.64;106827;1270;25327;-55
2023/09/27 06:32:51;;;;;;;13.30;8.30;;;;;;;16.61;100.00;100329.49;106951;1275;22528;-56
2023/09/27 06:35:20;;;;;;;13.90;8.00;;;;;;;16.83;100.00;100330.59;106758;1270;100238;-55
2023/09/27 06:37:50;;;;;;;16.20;9.40;;;;;;;16.99;100.00;100337.69;106937;1269;22626;-55
2023/09/27 06:40:19;;;;;;;13.80;8.30;;;;;;;17.13;100.00;100350.87;106798;1265;100325;-56
2023/09/27 06:42:48;;;;;;;15.20;9.30;;;;;;;17.23;100.00;100354.26;106684;1269;22534;-61
2023/09/27 06:45:17;;;;;;;13.60;9.20;;;;;;;17.29;100.00;100354.56;107257;1271;25643;-60
2023/09/27 06:47:46;;;;;;;14.90;8.60;;;;;;;17.33;100.00;100354.16;106689;1269;100987;-60
2023/09/27 06:50:19;;;;;;;11.50;6.80;;;;;;;17.36;100.00;100356.02;106593;1270;25278;-60
2023/09/27 06:52:48;;;;;;;11.90;6.90;;;;;;;17.40;100.00;100361.76;106827;1270;99780;-60
2023/09/27 06:55:20;;;;;;;16.50;10.00;;;;;;;17.44;100.00;100360.98;106669;1269;22683;-60
2023/09/27 06:57:52;;;;;;;16.20;10.00;;;;;;;17.50;100.00;100365.16;106752;1269;99964;-60
2023/09/27 07:00:24;;;;;;;18.30;8.40;;;;;;;17.65;100.00;100368.58;106701;1270;23551;-60
2023/09/27 07:02:53;;;;;;;14.60;9.10;;;;;;;17.89;100.00;100376.02;106845;1269;22527;-59
2023/09/27 07:05:26;;;;;;;16.90;10.40;;;;;;;18.15;100.00;100366.14;106859;1270;100206;-60
2023/09/27 07:07:55;;;;;;;13.80;8.30;;;;;;;18.28;100.00;100369.42;106741;1269;25616;-60
2023/09/27 07:10:24;;;;;;;15.60;9.10;;;;;;;18.30;100.00;100365.27;106394;1269;101563;-60
2023/09/27 07:12:52;;;;;;;12.00;7.90;;;;;;;18.23;100.00;100364.48;106860;1269;23879;-60
2023/09/27 07:15:22;;;;;;;12.80;7.50;;;;;;;18.13;100.00;100367.50;106788;1269;22528;-59
2023/09/27 07:17:50;;;;;;;15.00;7.30;;;;;;;18.10;100.00;100370.86;106710;1269;99994;-60
2023/09/27 07:20:32;;;;;;;13.30;8.50;;;;;;;18.32;100.00;100374.13;106442;1273;22643;-60
2023/09/27 07:23:06;;;;;;;13.90;7.90;;;;;;;18.62;100.00;100371.88;106655;1269;100372;-59
2023/09/27 07:25:37;;;;;;;16.20;8.90;;;;;;;18.89;100.00;100372.45;106539;1277;24282;-60
2023/09/27 07:28:06;;;;;;;12.30;8.50;;;;;;;18.95;100.00;100377.08;106789;1269;99813;-59
2023/09/27 07:30:36;;;;;;;12.00;7.80;;;;;;;19.31;100.00;100378.73;106984;1270;24248;-60
2023/09/27 07:33:11;;;;;;;13.00;7.80;;;;;;;19.62;100.00;100377.13;106659;1266;24215;-60
2023/09/27 07:35:42;;;;;;;12.40;7.90;;;;;;;19.92;100.00;100377.40;106460;1269;103083;-60
2023/09/27 07:38:12;;;;;;;10.00;7.30;;;;;;;20.25;100.00;100382.78;106609;1270;22539;-59
2023/09/27 07:40:46;;;;;;;12.20;8.30;;;;;;;20.62;100.00;100383.09;106671;1269;101031;-58
2023/09/27 07:43:15;;;;;;;11.20;7.90;;;;;;;21.13;100.00;100383.67;106578;1269;23359;-58
2023/09/27 07:45:47;;;;;;;10.60;6.30;;;;;;;21.75;100.00;100386.44;106760;1269;102284;-58
2023/09/27 07:48:16;;;;;;;9.20;7.30;;;;;;;22.19;100.00;100390.73;106866;1270;22972;-58
2023/09/27 07:50:45;;;;;;;9.80;6.90;;;;;;;22.31;100.00;100394.11;106747;1269;25304;-58
2023/09/27 07:53:13;;;;;;;8.80;6.40;;;;;;;22.48;100.00;100396.92;106445;1272;99735;-58
2023/09/27 07:55:53;;;;;;;12.00;8.20;;;;;;;22.70;100.00;100397.66;106753;1269;25474;-59
2023/09/27 07:58:21;;;;;;;7.30;5.50;;;;;;;23.03;100.00;100388.58;106559;1256;100274;-56
2023/09/27 08:00:50;;;;;;;10.50;6.70;;;;;;;23.50;100.00;100389.52;106541;1269;22518;-57
2023/09/27 08:03:21;;;;;;;13.80;8.20;;;;;;;24.32;100.00;100383.66;106592;1269;25422;-56
2023/09/27 08:05:51;;;;;;;5.50;4.30;;;;;;;25.67;100.00;100382.67;106672;1272;99993;-57
2023/09/27 08:08:21;;;;;;;7.60;5.30;;;;;;;26.61;100.00;100381.95;106496;1272;25470;-58
2023/09/27 08:10:51;;;;;;;7.70;5.70;;;;;;;27.54;100.00;100375.08;106705;1269;102411;-58
2023/09/27 08:13:20;;;;;;;8.80;6.90;;;;;;;29.01;100.00;100370.85;106801;1273;25250;-58
2023/09/27 08:15:49;;;;;;;9.00;5.50;;;;;;;30.75;100.00;100370.17;106907;1269;100161;-58
2023/09/27 08:18:18;;;;;;;6.20;5.10;;;;;;;32.16;100.00;100365.98;107016;1269;23533;-58
2023/09/27 08:20:47;;;;;;;5.20;3.40;;;;;;;32.64;100.00;100362.37;106910;1269;22513;-58
2023/09/27 08:23:16;;;;;;;8.50;5.40;;;;;;;33.40;100.00;100360.20;106722;1269;99936;-58
2023/09/27 08:25:45;;;;;;;8.40;4.40;;;;;;;34.97;100.00;100355.05;106736;1269;22533;-58
2023/09/27 08:28:16;;;;;;;7.50;5.20;;;;;;;36.25;100.00;100348.98;106645;1269;99483;-58
2023/09/27 08:30:44;;;;;;;7.10;4.90;;;;;;;37.28;100.00;100346.88;108102;1270;22654;-58
2023/09/27 08:33:14;;;;;;;4.40;3.50;;;;;;;38.09;99.85;100350.68;106479;1269;22540;-58
2023/09/27 08:35:42;;;;;;;7.90;4.50;;;;;;;39.19;97.09;100349.35;106977;1265;99070;-58
2023/09/27 08:38:11;;;;;;;5.80;4.40;;;;;;;39.82;94.09;100354.52;110405;1269;23008;-57
2023/09/27 08:40:42;;;;;;;6.00;4.20;;;;;;;40.32;91.36;100354.64;106521;1272;99836;-56
2023/09/27 08:43:11;;;;;;;6.40;4.50;;;;;;;41.12;89.97;100354.86;106799;1269;24265;-56
2023/09/27 08:45:40;;;;;;;5.10;4.10;;;;;;;42.16;86.96;100355.52;106646;1270;99589;-58
2023/09/27 08:48:13;;;;;;;6.10;4.00;;;;;;;43.08;84.56;100359.71;106605;1270;22523;-58
2023/09/27 08:50:43;;;;;;;5.80;3.60;;;;;;;44.03;81.63;100358.17;106623;1272;22538;-58
2023/09/27 08:53:12;;;;;;;3.30;2.90;;;;;;;45.01;79.51;100358.91;106886;1268;102929;-58
2023/09/27 08:55:50;;;;;;;7.20;4.00;;;;;;;45.52;74.70;100356.59;106653;1269;24355;-58
2023/09/27 08:58:25;;;;;;;2.80;2.30;;;;;;;46.09;72.85;100354.48;106467;1272;99277;-57
2023/09/27 09:00:54;;;;;;;5.90;4.50;;;;;;;46.20;69.38;100348.14;106741;1272;25718;-58
2023/09/27 09:03:23;;;;;;;7.00;3.40;;;;;;;46.47;66.09;100342.17;106757;1270;25240;-58
2023/09/27 09:05:54;;;;;;;3.50;2.90;;;;;;;47.29;63.67;100342.73;106616;1269;22605;-58
2023/09/27 09:08:22;;;;;;;2.30;2.10;;;;;;;47.90;60.96;100343.75;106580;1268;22556;-59
2023/09/27 09:11:11;;;;;;;5.30;3.70;;;;;;;48.27;58.20;100340.03;106722;1270;99893;-58
2023/09/27 09:14:04;;;;;;;3.70;3.20;;;;;;;48.82;56.51;100341.59;107124;1270;25262;-59
2023/09/27 09:16:44;;;;;;;4.30;3.20;;;;;;;49.11;52.32;100333.53;106642;1256;99541;-59
2023/09/27 09:19:24;;;;;;;2.90;2.70;;;;;;;49.29;50.13;100331.20;106485;1261;22601;-59
2023/09/27 09:22:12;;;;;;;4.60;3.10;;;;;;;49.69;44.52;100332.16;106585;1270;101889;-59
2023/09/27 09:24:43;;;;;;;4.20;2.60;;;;;;;50.41;42.86;100329.30;106592;1270;22533;-59
2023/09/27 09:27:16;;;;;;;3.00;2.60;;;;;;;50.54;39.92;100327.69;106610;1256;22772;-60
2023/09/27 09:29:46;;;;;;;4.90;3.60;;;;;;;50.53;38.48;100333.11;106723;1269;99650;-59
2023/09/27 09:32:20;;;;;;;4.10;2.70;;;;;;;50.22;36.34;100342.10;106679;1273;22524;-59
2023/09/27 09:34:50;;;;;;;4.50;3.40;;;;;;;49.78;34.13;100340.50;106575;1270;99807;-60
2023/09/27 09:37:22;;;;;;;4.20;3.10;;;;;;;50.20;33.43;100338.27;106978;1270;22554;-59
2023/09/27 09:39:51;;;;;;;8.70;3.40;;;;;;;50.73;32.28;100334.45;106584;1272;101360;-58
2023/09/27 09:42:34;;;;;;;4.50;3.20;;;;;;;50.69;30.63;100331.52;107205;1273;24260;-59
2023/09/27 09:45:10;;;;;;;3.70;2.70;;;;;;;50.39;29.64;100325.71;106859;1272;24231;-59
2023/09/27 09:47:43;;;;;;;4.30;3.00;;;;;;;50.41;28.69;100326.10;106458;1272;99509;-59
2023/09/27 09:50:19;;;;;;;4.40;2.20;;;;;;;50.26;27.85;100330.77;106565;1270;22530;-60
2023/09/27 09:52:58;;;;;;;2.90;2.60;;;;;;;50.32;27.50;100325.36;106622;1266;99862;-58
2023/09/27 09:55:34;;;;;;;3.30;2.40;;;;;;;50.79;27.11;100319.07;106755;1275;22857;-58
2023/09/27 09:58:35;;;;;;;4.60;2.70;;;;;;;50.90;26.47;100319.01;106564;1270;100052;-59
2023/09/27 10:01:07;;;;;;;5.00;2.90;;;;;;;50.49;24.98;100312.44;107163;1269;22636;-59
2023/09/27 10:03:37;;;;;;;4.70;2.90;;;;;;;50.17;24.85;100312.71;106667;1266;99644;-59
2023/09/27 10:06:09;;;;;;;4.60;2.90;;;;;;;50.82;24.78;100311.02;106772;1272;25411;-59
2023/09/27 10:08:39;;;;;;;3.90;3.20;;;;;;;51.36;24.89;100306.89;106656;1272;22527;-59
2023/09/27 10:11:08;;;;;;;3.60;3.10;;;;;;;51.68;24.47;100302.92;106667;1270;99225;-60
2023/09/27 10:13:39;;;;;;;2.70;2.50;;;;;;;51.81;23.73;100295.89;107007;1269;22539;-59
2023/09/27 10:16:09;;;;;;;3.20;2.80;;;;;;;51.46;23.31;100295.21;106476;1269;100431;-60
2023/09/27 10:18:40;;;;;;;2.70;2.20;;;;;;;51.67;23.63;100289.16;106571;1275;23929;-59
2023/09/27 10:21:12;;;;;;;4.10;3.70;;;;;;;52.03;23.04;100293.45;106736;1273;22527;-59
2023/09/27 10:23:52;;;;;;;5.20;2.90;;;;;;;51.81;22.73;100291.05;106563;1270;99413;-60
2023/09/27 10:26:27;;;;;;;4.00;3.30;;;;;;;51.63;22.02;100293.33;106908;1269;25413;-59
2023/09/27 10:29:03;;;;;;;5.20;3.80;;;;;;;51.67;22.18;100290.65;106575;1273;99466;-59
2023/09/27 10:31:56;;;;;;;4.00;3.70;;;;;;;52.03;21.96;100286.20;106807;1272;22509;-59
2023/09/27 10:34:25;;;;;;;4.50;3.20;;;;;;;52.60;21.72;100284.27;107036;1272;101694;-58
2023/09/27 10:36:59;;;;;;;4.80;3.80;;;;;;;52.92;21.49;100281.08;106807;1271;24044;-59
2023/09/27 10:40:19;;;;;;;4.30;4.00;;;;;;;52.67;20.93;100282.05;106529;1269;100498;-59
2023/09/27 10:42:48;;;;;;;4.40;3.80;;;;;;;52.81;20.59;100281.00;107233;1269;25396;-58
2023/09/27 10:45:17;;;;;;;5.50;4.10;;;;;;;52.66;20.40;100279.15;106892;1273;25416;-58
2023/09/27 10:47:49;;;;;;;4.60;4.20;;;;;;;53.13;20.45;100279.91;106712;1272;99828;-58
2023/09/27 10:50:28;;;;;;;5.50;5.00;;;;;;;53.64;20.00;100280.84;106643;1273;23402;-59
2023/09/27 10:52:59;;;;;;;4.90;4.60;;;;;;;53.04;19.47;100277.48;106621;1254;100998;-59
2023/09/27 10:55:38;;;;;;;5.10;4.60;;;;;;;52.53;19.92;100279.08;106814;1270;22557;-58
2023/09/27 10:58:07;;;;;;;6.40;5.80;;;;;;;53.12;19.97;100280.68;106493;1254;101076;-59
2023/09/27 11:00:49;;;;;;;5.50;5.10;;;;;;;53.93;19.91;100284.48;106689;1275;26261;-59
2023/09/27 11:03:19;;;;;;;5.70;5.20;;;;;;;54.09;19.25;100281.81;106812;1270;25241;-58
2023/09/27 11:05:48;;;;;;;7.70;5.80;;;;;;;53.65;18.29;100278.23;106861;1272;99011;-58
2023/09/27 11:08:22;;;;;;;6.10;5.60;;;;;;;52.60;17.57;100276.14;106761;1273;23872;-58
2023/09/27 11:10:55;;;;;;;6.00;5.50;;;;;;;52.44;17.73;100273.24;106534;1270;99624;-57
2023/09/27 11:13:29;;;;;;;5.40;5.00;;;;;;;52.88;17.90;100273.67;106745;1273;25495;-58
2023/09/27 11:16:09;;;;;;;5.30;4.90;;;;;;;53.13;17.77;100267.14;106537;1267;99966;-59
2023/09/27 11:18:46;;;;;;;5.40;5.00;;;;;;;52.06;16.79;100269.83;106696;1274;23917;-59
2023/09/27 11:21:16;;;;;;;5.20;4.80;;;;;;;51.08;16.62;100263.73;106653;1275;25291;-57